Greenville/Spartanburg

Airport
ICAO code: 
KGSP
Summary
ICAO Region: 
NAM
Territory: 
Location: 
Greer, South Carolina,
Elevation: 
964 ft
Coordinates: 
Aerial View: 
34° 53' 44.515" N, 82° 13' 8.049" W
Airport RE: 
Engineered Materials Arresting System
Metar
Observation
KGSP 040753Z AUTO 20006KT 10SM CLR 11/03 A3002 RMK AO2 SLP159 T01060028
Station
Greer, Greenville-Spartanburg Airport
Date/Time
2021-12-04 07:53:00
Wind direction
200°
Wind speed
06 kts
Lowest cloud amount
n/a
Temperature
10.6°C
Dew point
2.8°C
Humidity
58%
Weather condition
n/a

Description

Greenville-Spartanburg International Airport, also known as GSP International Airport or Roger Milliken Field, is a public airport located in unincorporated Greenville and Spartanburg counties in South Carolina, United States, 5 km south of central Greer; the airport serves Greenville and Spartanburg in the Upstate region of South Carolina.

Climatology

Humid “subtropical” climate (Köppen climate classification Cfa) - characterized by hot, humid summers and cool winters. Significant amounts of precipitation occur in all seasons in most areas. Winter rainfall (and sometimes snowfall) is associated with large storms that the westerlies steer from west to east. Most summer rainfall occurs during thunderstorms and occasional tropical storms (hurricanes).

Runways

Designator Length Width Surface Rops
4/22 3353 46 PEM Yes/Yes
Airport map: 
Aerial View: 

SKYbrary Partners:

Safety knowledge contributed by: